createdAt,value
2022-11-09T00:00:06.083Z,1.66
2022-11-09T00:02:08.359Z,1.66
2022-11-09T00:04:10.420Z,1.66
2022-11-09T00:06:05.633Z,1.66
2022-11-09T00:08:06.731Z,1.66
2022-11-09T00:10:13.983Z,1.66
2022-11-09T00:12:06.517Z,1.66
2022-11-09T00:14:07.117Z,1.66
2022-11-09T00:16:06.079Z,1.66
2022-11-09T00:18:06.467Z,1.66
2022-11-09T00:20:05.717Z,1.66
2022-11-09T00:22:07.438Z,1.66
2022-11-09T00:24:06.272Z,1.66
2022-11-09T00:26:05.301Z,1.66
2022-11-09T00:28:09.139Z,1.66
2022-11-09T00:30:06.171Z,1.66
2022-11-09T00:32:05.447Z,1.66
2022-11-09T00:34:09.412Z,1.66
2022-11-09T00:36:05.568Z,1.66
2022-11-09T00:38:06.448Z,1.66
2022-11-09T00:40:05.336Z,1.66
2022-11-09T00:42:06.060Z,1.66
2022-11-09T00:44:06.885Z,1.66
2022-11-09T00:46:06.345Z,1.66
2022-11-09T00:48:06.143Z,1.66
2022-11-09T00:50:05.933Z,1.66
2022-11-09T00:52:05.634Z,1.66
2022-11-09T00:54:06.394Z,1.66
2022-11-09T00:56:05.158Z,1.66
2022-11-09T00:58:05.723Z,1.66
2022-11-09T01:00:07.259Z,1.66
2022-11-09T01:02:11.588Z,1.66
2022-11-09T01:04:06.416Z,1.66
2022-11-09T01:06:05.918Z,1.66
2022-11-09T01:08:06.512Z,1.66
2022-11-09T01:10:06.302Z,1.66
2022-11-09T01:12:05.900Z,1.66
2022-11-09T01:14:05.900Z,1.66
2022-11-09T01:16:05.938Z,1.66
2022-11-09T01:18:05.644Z,1.66
2022-11-09T01:20:05.657Z,1.66
2022-11-09T01:22:05.208Z,1.66
2022-11-09T01:24:05.936Z,1.66
2022-11-09T01:26:05.922Z,1.66
2022-11-09T01:28:05.569Z,1.66
2022-11-09T01:30:05.942Z,1.66
2022-11-09T01:32:05.447Z,1.66
2022-11-09T01:34:06.465Z,1.66
2022-11-09T01:36:05.218Z,1.66
2022-11-09T01:38:06.071Z,1.66
2022-11-09T01:40:05.271Z,1.66
2022-11-09T01:42:05.508Z,1.66
2022-11-09T01:44:05.895Z,1.66
2022-11-09T01:46:05.343Z,1.66
2022-11-09T01:48:05.748Z,1.66
2022-11-09T01:50:05.237Z,1.66
2022-11-09T01:52:05.364Z,1.66
2022-11-09T01:54:05.923Z,1.66
2022-11-09T01:56:05.471Z,1.66
2022-11-09T01:58:05.182Z,1.66
2022-11-09T02:00:05.907Z,1.66
2022-11-09T02:02:08.771Z,1.66
2022-11-09T02:04:05.956Z,1.66
2022-11-09T02:06:05.282Z,1.66
2022-11-09T02:08:06.380Z,1.66
2022-11-09T02:10:05.662Z,1.66
2022-11-09T02:12:05.572Z,1.66
2022-11-09T02:14:06.560Z,1.66
2022-11-09T02:16:08.618Z,1.66
2022-11-09T02:18:05.117Z,1.66
2022-11-09T02:20:06.033Z,1.66
2022-11-09T02:22:06.345Z,1.66
2022-11-09T02:24:05.865Z,1.66
2022-11-09T02:26:05.203Z,1.66
2022-11-09T02:28:06.178Z,1.66
2022-11-09T02:30:05.488Z,1.66
2022-11-09T02:32:05.783Z,1.66
2022-11-09T02:34:05.998Z,1.66
2022-11-09T02:36:06.306Z,1.66
2022-11-09T02:38:05.469Z,1.66
2022-11-09T02:40:05.460Z,1.66
2022-11-09T02:42:09.895Z,1.66
2022-11-09T02:44:14.366Z,1.66
2022-11-09T02:46:05.624Z,1.66
2022-11-09T02:48:05.909Z,1.66
2022-11-09T02:50:05.199Z,1.66
2022-11-09T02:52:05.529Z,1.66
2022-11-09T02:54:05.771Z,1.66
2022-11-09T02:56:05.632Z,1.66
2022-11-09T02:58:05.964Z,1.66
2022-11-09T03:00:05.793Z,1.66
2022-11-09T03:02:09.080Z,1.66
2022-11-09T03:04:05.929Z,1.66
2022-11-09T03:06:05.906Z,1.66
2022-11-09T03:08:05.931Z,1.66
2022-11-09T03:10:05.524Z,1.66
2022-11-09T03:12:05.582Z,1.66
2022-11-09T03:14:06.316Z,1.66
2022-11-09T03:16:05.126Z,1.66
2022-11-09T03:18:09.848Z,1.66
2022-11-09T03:20:05.493Z,1.66
2022-11-09T03:22:06.003Z,1.66
2022-11-09T03:24:06.036Z,1.66
2022-11-09T03:26:05.408Z,1.66
2022-11-09T03:28:05.098Z,1.66
2022-11-09T03:30:05.816Z,1.66
2022-11-09T03:32:05.877Z,1.66
2022-11-09T03:34:09.510Z,1.66
2022-11-09T03:36:05.959Z,1.66
2022-11-09T03:38:05.920Z,1.66
2022-11-09T03:40:05.868Z,1.66
2022-11-09T03:42:05.544Z,1.66
2022-11-09T03:44:06.602Z,1.66
2022-11-09T03:46:05.454Z,1.66
2022-11-09T03:48:05.507Z,1.66
2022-11-09T03:50:05.908Z,1.66
2022-11-09T03:52:05.641Z,1.66
2022-11-09T03:54:06.232Z,1.66
2022-11-09T03:56:05.183Z,1.66
2022-11-09T03:58:05.307Z,1.66
2022-11-09T04:00:05.510Z,1.66
2022-11-09T04:02:09.477Z,1.66
2022-11-09T04:04:06.789Z,1.66
2022-11-09T04:06:05.684Z,1.66
2022-11-09T04:08:06.405Z,1.66
2022-11-09T04:10:10.258Z,1.66
2022-11-09T04:12:05.998Z,1.66
2022-11-09T04:14:05.806Z,1.66
2022-11-09T04:16:05.567Z,1.66
2022-11-09T04:18:06.054Z,1.66
2022-11-09T04:20:05.618Z,1.66
2022-11-09T04:22:09.154Z,1.66
2022-11-09T04:24:06.157Z,1.66
2022-11-09T04:26:05.765Z,1.66
2022-11-09T04:28:05.666Z,1.66
2022-11-09T04:30:05.163Z,1.66
2022-11-09T04:32:12.879Z,1.66
2022-11-09T04:34:06.004Z,1.66
2022-11-09T04:36:05.988Z,1.66
2022-11-09T04:38:05.542Z,1.66
2022-11-09T04:40:05.305Z,1.66
2022-11-09T04:42:05.309Z,1.66
2022-11-09T04:44:06.362Z,1.66
2022-11-09T04:46:05.505Z,1.66
2022-11-09T04:48:05.831Z,1.66
2022-11-09T04:50:05.651Z,1.66
2022-11-09T04:52:05.839Z,1.66
2022-11-09T04:54:05.812Z,1.66
2022-11-09T04:56:05.732Z,1.66
2022-11-09T04:58:05.071Z,1.66
2022-11-09T05:00:06.632Z,1.66
2022-11-09T05:02:08.342Z,1.66
2022-11-09T05:04:06.231Z,1.66
2022-11-09T05:06:11.163Z,1.66
2022-11-09T05:08:06.502Z,1.66
2022-11-09T05:10:05.317Z,1.66
2022-11-09T05:12:05.696Z,1.66
2022-11-09T05:14:06.636Z,1.66
2022-11-09T05:16:05.409Z,1.66
2022-11-09T05:18:05.857Z,1.66
2022-11-09T05:20:07.415Z,1.66
2022-11-09T05:22:05.915Z,1.66
2022-11-09T05:24:05.947Z,1.66
2022-11-09T05:26:05.375Z,1.66
2022-11-09T05:28:05.637Z,1.66
2022-11-09T05:30:05.326Z,1.66
2022-11-09T05:32:13.273Z,1.66
2022-11-09T05:34:05.794Z,1.66
2022-11-09T05:36:05.942Z,1.66
2022-11-09T05:38:10.986Z,1.66
2022-11-09T05:40:05.151Z,1.66
2022-11-09T05:42:05.265Z,1.66
2022-11-09T05:44:06.348Z,1.66
2022-11-09T05:46:40.709Z,1.66
2022-11-09T05:48:10.570Z,1.66
2022-11-09T05:50:05.635Z,1.66
2022-11-09T05:52:06.245Z,1.66
2022-11-09T05:54:09.430Z,1.66
2022-11-09T05:56:05.988Z,1.66
2022-11-09T05:58:05.797Z,1.66
2022-11-09T06:00:10.666Z,1.66
2022-11-09T06:02:14.309Z,1.66
2022-11-09T06:04:07.103Z,1.66
2022-11-09T06:06:08.325Z,1.66
2022-11-09T06:08:13.076Z,1.66
2022-11-09T06:10:06.183Z,1.66
2022-11-09T06:12:09.626Z,1.66
2022-11-09T06:14:05.755Z,1.66
2022-11-09T06:16:06.019Z,1.66
2022-11-09T06:18:05.608Z,1.66
2022-11-09T06:20:05.483Z,1.66
2022-11-09T06:22:05.959Z,1.66
2022-11-09T06:24:11.167Z,1.66
2022-11-09T06:26:05.894Z,1.66
2022-11-09T06:28:05.247Z,1.66
2022-11-09T06:30:05.503Z,1.66
2022-11-09T06:32:05.217Z,1.66
2022-11-09T06:34:06.166Z,1.66
2022-11-09T06:36:07.973Z,1.66
2022-11-09T06:38:05.492Z,1.66
2022-11-09T06:40:05.159Z,1.66
2022-11-09T06:42:10.220Z,1.66
2022-11-09T06:44:07.007Z,1.66
2022-11-09T06:46:05.571Z,1.66
2022-11-09T06:48:05.568Z,1.66
2022-11-09T06:50:13.226Z,1.66
2022-11-09T06:52:05.900Z,1.66
2022-11-09T06:54:05.605Z,1.66
2022-11-09T06:56:12.594Z,1.66
2022-11-09T06:58:05.330Z,1.66
2022-11-09T07:00:06.111Z,1.66
2022-11-09T07:02:12.976Z,1.66
2022-11-09T07:04:06.355Z,1.66
2022-11-09T07:06:05.745Z,1.66
2022-11-09T07:08:12.888Z,1.66
2022-11-09T07:10:05.892Z,1.66
2022-11-09T07:12:05.626Z,1.66
2022-11-09T07:14:09.075Z,1.66
2022-11-09T07:16:05.636Z,1.66
2022-11-09T07:18:05.669Z,1.66
2022-11-09T07:20:05.940Z,1.66
2022-11-09T07:22:10.711Z,1.66
2022-11-09T07:24:07.971Z,1.66
2022-11-09T07:26:05.795Z,1.66
2022-11-09T07:28:12.750Z,1.66
2022-11-09T07:30:05.910Z,1.66
2022-11-09T07:32:05.065Z,1.66
2022-11-09T07:34:41.096Z,1.66
2022-11-09T07:36:05.809Z,1.66
2022-11-09T07:38:12.487Z,1.66
2022-11-09T07:40:06.210Z,1.66
2022-11-09T07:42:08.759Z,1.66
2022-11-09T07:44:05.746Z,1.66
2022-11-09T07:46:05.566Z,1.66
2022-11-09T07:48:11.962Z,1.66
2022-11-09T07:50:05.055Z,1.66
2022-11-09T07:52:06.106Z,1.66
2022-11-09T07:54:06.321Z,1.66
2022-11-09T07:56:10.986Z,1.66
2022-11-09T07:58:05.766Z,1.66
2022-11-09T08:00:05.465Z,1.66
2022-11-09T08:02:16.442Z,1.66
2022-11-09T08:04:07.002Z,1.66
2022-11-09T08:06:06.109Z,1.66
2022-11-09T08:08:11.527Z,1.66
2022-11-09T08:10:05.703Z,1.66
2022-11-09T08:12:05.399Z,1.66
2022-11-09T08:14:08.301Z,1.66
2022-11-09T08:16:05.763Z,1.66
2022-11-09T08:18:08.093Z,1.66
2022-11-09T08:20:06.271Z,1.66
2022-11-09T08:22:05.459Z,1.66
2022-11-09T08:24:11.809Z,1.66
2022-11-09T08:26:05.323Z,1.66
2022-11-09T08:28:05.068Z,1.66
2022-11-09T08:30:08.716Z,1.66
2022-11-09T08:32:05.855Z,1.66
2022-11-09T08:34:05.204Z,1.66
2022-11-09T08:36:05.087Z,1.66
2022-11-09T08:38:05.710Z,1.66
2022-11-09T08:40:05.859Z,1.66
2022-11-09T08:42:09.953Z,1.66
2022-11-09T08:44:05.622Z,1.66
2022-11-09T08:46:05.954Z,1.66
2022-11-09T08:48:11.316Z,1.66
2022-11-09T08:50:05.739Z,1.66
2022-11-09T08:52:05.945Z,1.66
2022-11-09T08:54:05.155Z,1.66
2022-11-09T08:56:10.974Z,1.66
2022-11-09T08:58:05.590Z,1.66
2022-11-09T09:00:05.593Z,1.66
2022-11-09T09:02:14.304Z,1.66
2022-11-09T09:04:05.281Z,1.66
2022-11-09T09:06:05.661Z,1.66
2022-11-09T09:08:12.636Z,1.66
2022-11-09T09:10:05.856Z,1.66
2022-11-09T09:12:05.817Z,1.66
2022-11-09T09:14:06.431Z,1.66
2022-11-09T09:16:05.436Z,1.66
2022-11-09T09:18:05.833Z,1.66
2022-11-09T09:20:12.612Z,1.66
2022-11-09T09:22:05.402Z,1.66
2022-11-09T09:24:05.398Z,1.66
2022-11-09T09:26:10.114Z,1.66
2022-11-09T09:28:05.956Z,1.66
2022-11-09T09:30:05.581Z,1.66
2022-11-09T09:32:12.171Z,18.7
2022-11-09T09:34:05.559Z,18.7
2022-11-09T09:36:05.843Z,18.7
2022-11-09T09:38:07.360Z,0.34
2022-11-09T09:40:05.155Z,0.34
2022-11-09T09:42:05.949Z,0.34
2022-11-09T09:44:06.525Z,0.34
2022-11-09T09:46:05.965Z,0.34
2022-11-09T09:48:05.891Z,0.34
2022-11-09T09:50:05.772Z,0.34
2022-11-09T09:52:05.733Z,0.34
2022-11-09T09:54:36.855Z,0.34
2022-11-09T09:56:05.757Z,0.34
2022-11-09T09:58:05.556Z,0.34
2022-11-09T10:00:05.037Z,0.34
2022-11-09T10:02:07.098Z,0.34
2022-11-09T10:04:05.777Z,0.34
2022-11-09T10:06:06.117Z,0.34
2022-11-09T10:08:05.648Z,0.34
2022-11-09T10:10:05.377Z,0.34
2022-11-09T10:12:12.119Z,0.34
2022-11-09T10:14:05.604Z,0.34
2022-11-09T10:16:05.047Z,0.34
2022-11-09T10:18:05.509Z,0.34
2022-11-09T10:20:05.539Z,0.34
2022-11-09T10:22:11.590Z,0.34
2022-11-09T10:24:05.281Z,0.34
2022-11-09T10:27:12.215Z,0.34
2022-11-09T10:28:13.285Z,0.34
2022-11-09T10:30:35.954Z,0.34
2022-11-09T10:32:05.903Z,0.34
2022-11-09T10:34:05.130Z,0.34
2022-11-09T10:36:08.406Z,0.34
2022-11-09T10:38:11.809Z,0.34
2022-11-09T10:40:05.973Z,0.34
2022-11-09T10:42:05.770Z,0.34
2022-11-09T10:44:05.763Z,10.35
2022-11-09T10:46:10.319Z,2.31
2022-11-09T10:48:05.984Z,2.31
2022-11-09T10:50:05.909Z,0.23
2022-11-09T10:52:06.133Z,0.2
2022-11-09T10:54:06.743Z,0.2
2022-11-09T10:56:05.835Z,0.14
2022-11-09T10:58:36.785Z,0.14
2022-11-09T11:00:05.647Z,0.14
2022-11-09T11:02:13.680Z,0.11
2022-11-09T11:04:06.865Z,0.11
2022-11-09T11:06:05.396Z,0.11
2022-11-09T11:08:06.913Z,0.1
2022-11-09T11:10:05.808Z,0.1
2022-11-09T11:12:35.276Z,0.1
2022-11-09T11:14:06.109Z,0.1
2022-11-09T11:16:10.912Z,0.1
2022-11-09T11:18:06.067Z,0.1
2022-11-09T11:20:05.530Z,0.1
2022-11-09T11:22:05.668Z,0.1
2022-11-09T11:24:06.597Z,0.1
2022-11-09T11:26:05.585Z,0.09
2022-11-09T11:28:07.130Z,0.09
2022-11-09T11:30:06.020Z,0.09
2022-11-09T11:32:05.359Z,0.09
2022-11-09T11:34:09.631Z,0.09
2022-11-09T11:36:42.561Z,0.09
2022-11-09T11:38:05.617Z,0.09
2022-11-09T11:40:05.710Z,0.09
2022-11-09T11:42:05.359Z,0.09
2022-11-09T11:44:06.109Z,0.09
2022-11-09T11:46:46.824Z,0.09
2022-11-09T11:48:05.537Z,0.09
2022-11-09T11:50:05.904Z,0.09
2022-11-09T11:52:05.868Z,0.09
2022-11-09T11:54:06.364Z,0.09
2022-11-09T11:56:05.504Z,0.09
2022-11-09T11:58:06.079Z,0.09
2022-11-09T12:00:05.745Z,0.09
2022-11-09T12:02:08.105Z,0.09
2022-11-09T12:04:13.037Z,0.09
2022-11-09T12:06:13.452Z,0.09
2022-11-09T12:08:08.947Z,0.09
2022-11-09T12:10:05.562Z,0.09
2022-11-09T12:12:05.468Z,0.09
2022-11-09T12:14:12.201Z,0.09
2022-11-09T12:16:05.736Z,0.09
2022-11-09T12:18:06.433Z,0.09
2022-11-09T12:20:12.832Z,0.08
2022-11-09T12:22:06.239Z,0.09
2022-11-09T12:24:06.324Z,0.09
2022-11-09T12:26:10.655Z,0.09
2022-11-09T12:28:41.066Z,0.08
2022-11-09T12:30:05.837Z,0.08
2022-11-09T12:32:05.627Z,0.09
2022-11-09T12:34:11.055Z,0.09
2022-11-09T12:36:05.316Z,0.09
2022-11-09T12:38:06.628Z,0.09
2022-11-09T12:40:05.901Z,0.09
2022-11-09T12:42:06.071Z,0.09
2022-11-09T12:44:06.084Z,0.08
2022-11-09T12:46:09.934Z,0.08
2022-11-09T12:48:05.851Z,0.08
2022-11-09T12:50:05.760Z,0.08
2022-11-09T12:52:10.421Z,0.08
2022-11-09T12:54:05.713Z,0.08
2022-11-09T12:56:05.437Z,0.08
2022-11-09T12:58:12.078Z,0.08
2022-11-09T13:00:05.863Z,0.08
2022-11-09T13:02:10.355Z,0.08
2022-11-09T13:04:06.175Z,0.08
2022-11-09T13:06:13.522Z,0.08
2022-11-09T13:08:06.900Z,0.08
2022-11-09T13:10:18.706Z,0.08
2022-11-09T13:12:05.260Z,0.08
2022-11-09T13:14:09.403Z,0.08
2022-11-09T13:16:05.367Z,0.08
2022-11-09T13:18:05.805Z,0.08
2022-11-09T13:20:06.972Z,0.08
2022-11-09T13:22:41.294Z,0.08
2022-11-09T13:24:44.140Z,0.08
2022-11-09T13:26:16.833Z,0.08
2022-11-09T13:28:05.121Z,0.08
2022-11-09T13:30:08.221Z,0.08
2022-11-09T13:32:05.710Z,0.08
2022-11-09T13:34:06.714Z,0.08
2022-11-09T13:36:05.910Z,0.08
2022-11-09T13:38:09.657Z,0.08
2022-11-09T13:40:12.733Z,0.08
2022-11-09T13:42:06.048Z,0.08
2022-11-09T13:44:06.290Z,0.08
2022-11-09T13:46:09.452Z,0.08
2022-11-09T13:48:05.192Z,0.08
2022-11-09T13:50:05.358Z,0.08
2022-11-09T13:52:07.986Z,0.08
2022-11-09T13:54:06.543Z,0.08
2022-11-09T13:56:05.879Z,0.08
2022-11-09T13:58:08.770Z,0.08
2022-11-09T14:00:05.795Z,0.08
2022-11-09T14:02:12.481Z,0.08
2022-11-09T14:04:06.359Z,0.08
2022-11-09T14:06:05.680Z,0.08
2022-11-09T14:08:06.235Z,0.08
2022-11-09T14:10:10.867Z,0.08
2022-11-09T14:12:05.788Z,0.08
2022-11-09T14:14:09.178Z,0.08
2022-11-09T14:16:07.543Z,0.08
2022-11-09T14:18:05.113Z,0.08
2022-11-09T14:20:11.516Z,0.08
2022-11-09T14:22:05.603Z,0.08
2022-11-09T14:24:05.990Z,0.08
2022-11-09T14:26:05.800Z,0.08
2022-11-09T14:28:05.352Z,0.08
2022-11-09T14:30:05.828Z,0.08
2022-11-09T14:32:08.174Z,0.08
2022-11-09T14:34:05.348Z,0.08
2022-11-09T14:36:06.058Z,0.08
2022-11-09T14:38:12.428Z,0.08
2022-11-09T14:40:05.756Z,0.08
2022-11-09T14:42:05.920Z,0.08
2022-11-09T14:44:05.873Z,0.08
2022-11-09T14:46:05.612Z,0.08
2022-11-09T14:48:05.687Z,0.08
2022-11-09T14:50:06.372Z,0.08
2022-11-09T14:52:06.112Z,0.08
2022-11-09T14:54:05.351Z,0.08
2022-11-09T14:56:05.461Z,0.08
2022-11-09T14:58:05.721Z,0.08
2022-11-09T15:00:05.895Z,0.08
2022-11-09T15:02:14.807Z,0.08
2022-11-09T15:04:05.289Z,0.08
2022-11-09T15:06:06.533Z,0.08
2022-11-09T15:08:06.438Z,0.08
2022-11-09T15:10:06.087Z,0.08
2022-11-09T15:12:05.166Z,0.08
2022-11-09T15:14:05.464Z,0.08
2022-11-09T15:16:05.806Z,0.08
2022-11-09T15:18:05.899Z,0.08
2022-11-09T15:20:11.778Z,0.08
2022-11-09T15:22:05.327Z,0.08
2022-11-09T15:24:05.499Z,0.08
2022-11-09T15:26:05.747Z,0.09
2022-11-09T15:28:05.581Z,0.08
2022-11-09T15:30:06.528Z,0.08
2022-11-09T15:32:05.423Z,0.08
2022-11-09T15:34:05.339Z,0.08
2022-11-09T15:36:05.243Z,0.08
2022-11-09T15:38:05.302Z,0.08
2022-11-09T15:40:05.844Z,0.08
2022-11-09T15:42:05.235Z,0.08
2022-11-09T15:44:05.536Z,0.08
2022-11-09T15:46:06.280Z,0.08
2022-11-09T15:48:06.601Z,0.08
2022-11-09T15:50:06.717Z,0.08
2022-11-09T15:52:05.286Z,0.08
2022-11-09T15:54:05.029Z,0.08
2022-11-09T15:56:05.887Z,0.08
2022-11-09T15:58:05.990Z,0.08
2022-11-09T16:00:12.601Z,0.08
2022-11-09T16:02:15.698Z,0.08
2022-11-09T16:04:05.795Z,0.08
2022-11-09T16:06:05.975Z,0.08
2022-11-09T16:08:06.285Z,0.08
2022-11-09T16:10:05.957Z,0.08
2022-11-09T16:12:05.707Z,0.08
2022-11-09T16:14:05.750Z,0.08
2022-11-09T16:16:05.653Z,0.08
2022-11-09T16:18:05.606Z,0.08
2022-11-09T16:20:07.686Z,0.08
2022-11-09T16:22:05.917Z,0.08
2022-11-09T16:24:10.146Z,0.08
2022-11-09T16:26:05.157Z,0.08
2022-11-09T16:28:35.844Z,0.08
2022-11-09T16:30:05.880Z,0.08
2022-11-09T16:32:35.496Z,4.25
2022-11-09T16:34:05.378Z,1.02
2022-11-09T16:36:35.607Z,1.02
2022-11-09T16:38:12.671Z,1.02
2022-11-09T16:40:05.217Z,1.02
2022-11-09T16:42:05.339Z,1.02
2022-11-09T16:44:05.599Z,1.02
2022-11-09T16:46:07.602Z,1.02
2022-11-09T16:48:05.432Z,1.02
2022-11-09T16:50:05.871Z,1.02
2022-11-09T16:52:05.520Z,1.02
2022-11-09T16:54:11.626Z,1.02
2022-11-09T16:56:05.883Z,1.02
2022-11-09T16:58:05.572Z,1.02
2022-11-09T17:00:05.329Z,1.02
2022-11-09T17:02:43.816Z,1.02
2022-11-09T17:04:05.240Z,1.02
2022-11-09T17:06:05.406Z,1.02
2022-11-09T17:08:06.384Z,1.02
2022-11-09T17:10:05.430Z,1.02
2022-11-09T17:12:05.682Z,1.02
2022-11-09T17:14:05.924Z,1.02
2022-11-09T17:16:05.223Z,1.02
2022-11-09T17:18:08.065Z,1.02
2022-11-09T17:20:05.622Z,1.02
2022-11-09T17:22:05.483Z,1.02
2022-11-09T17:24:05.393Z,1.02
2022-11-09T17:26:05.075Z,1.02
2022-11-09T17:28:06.071Z,1.02
2022-11-09T17:30:11.657Z,1.02
2022-11-09T17:32:05.228Z,1.02
2022-11-09T17:34:12.305Z,1.02
2022-11-09T17:36:05.520Z,1.02
2022-11-09T17:38:44.168Z,1.02
2022-11-09T17:40:05.859Z,1.02
2022-11-09T17:42:05.684Z,1.02
2022-11-09T17:44:05.210Z,1.02
2022-11-09T17:46:05.504Z,1.02
2022-11-09T17:48:05.336Z,1.02
2022-11-09T17:50:07.017Z,1.02
2022-11-09T17:52:06.107Z,1.02
2022-11-09T17:54:05.817Z,1.02
2022-11-09T17:56:07.705Z,1.02
2022-11-09T17:58:05.477Z,1.02
2022-11-09T18:00:07.165Z,1.02
2022-11-09T18:02:15.296Z,1.02
2022-11-09T18:04:06.695Z,1.02
2022-11-09T18:06:10.700Z,1.02
2022-11-09T18:08:06.334Z,1.02
2022-11-09T18:10:49.300Z,1.02
2022-11-09T18:12:06.248Z,1.02
2022-11-09T18:14:06.300Z,1.02
2022-11-09T18:16:05.807Z,1.02
2022-11-09T18:18:10.880Z,1.02
2022-11-09T18:20:06.321Z,1.02
2022-11-09T18:22:09.893Z,1.02
2022-11-09T18:24:07.810Z,1.02
2022-11-09T18:26:05.603Z,1.02
2022-11-09T18:28:05.217Z,1.02
2022-11-09T18:30:05.724Z,1.02
2022-11-09T18:32:06.206Z,1.02
2022-11-09T18:34:05.629Z,1.02
2022-11-09T18:36:04.969Z,1.02
2022-11-09T18:38:08.946Z,1.02
2022-11-09T18:40:10.962Z,1.02
2022-11-09T18:42:05.986Z,1.02
2022-11-09T18:44:05.928Z,1.02
2022-11-09T18:46:06.552Z,1.02
2022-11-09T18:48:12.837Z,1.02
2022-11-09T18:50:10.713Z,1.02
2022-11-09T18:52:05.378Z,1.02
2022-11-09T18:54:06.414Z,1.02
2022-11-09T18:56:06.952Z,1.02
2022-11-09T18:58:16.152Z,1.02
2022-11-09T19:00:05.770Z,1.02
2022-11-09T19:02:08.306Z,1.02
2022-11-09T19:04:10.745Z,1.02
2022-11-09T19:06:05.422Z,1.02
2022-11-09T19:08:05.856Z,1.02
2022-11-09T19:10:08.193Z,1.02
2022-11-09T19:12:05.281Z,1.02
2022-11-09T19:14:05.081Z,1.02
2022-11-09T19:16:09.829Z,1.02
2022-11-09T19:18:06.095Z,1.02
2022-11-09T19:20:05.606Z,1.02
2022-11-09T19:22:05.940Z,1.02
2022-11-09T19:24:08.754Z,1.02
2022-11-09T19:26:05.594Z,1.02
2022-11-09T19:28:06.099Z,1.02
2022-11-09T19:30:09.372Z,1.02
2022-11-09T19:32:13.076Z,1.02
2022-11-09T19:34:05.804Z,1.02
2022-11-09T19:36:46.127Z,1.02
2022-11-09T19:38:40.292Z,1.02
2022-11-09T19:40:17.646Z,1.02
2022-11-09T19:42:10.239Z,1.02
2022-11-09T19:44:06.120Z,1.02
2022-11-09T19:46:05.253Z,1.02
2022-11-09T19:48:05.735Z,1.02
2022-11-09T19:50:05.662Z,1.02
2022-11-09T19:52:05.703Z,1.02
2022-11-09T19:54:05.780Z,1.02
2022-11-09T19:56:05.941Z,1.02
2022-11-09T19:58:05.827Z,1.02
2022-11-09T20:00:05.636Z,1.02
2022-11-09T20:02:08.321Z,1.02
2022-11-09T20:04:09.926Z,1.02
2022-11-09T20:06:08.963Z,1.02
2022-11-09T20:08:05.884Z,1.02
2022-11-09T20:10:06.657Z,1.02
2022-11-09T20:12:05.079Z,1.02
2022-11-09T20:14:05.698Z,1.02
2022-11-09T20:16:05.879Z,1.02
2022-11-09T20:18:10.957Z,1.02
2022-11-09T20:20:05.764Z,1.02
2022-11-09T20:22:05.413Z,1.02
2022-11-09T20:24:06.883Z,1.02
2022-11-09T20:26:05.752Z,1.02
2022-11-09T20:28:06.441Z,1.02
2022-11-09T20:30:05.917Z,1.02
2022-11-09T20:32:06.086Z,1.02
2022-11-09T20:34:09.483Z,1.02
2022-11-09T20:36:09.484Z,1.02
2022-11-09T20:38:05.643Z,1.02
2022-11-09T20:40:05.677Z,1.02
2022-11-09T20:42:10.451Z,1.02
2022-11-09T20:44:05.618Z,1.02
2022-11-09T20:46:05.743Z,1.02
2022-11-09T20:49:21.722Z,1.02
2022-11-09T20:52:05.943Z,1.02
2022-11-09T20:54:07.498Z,1.02
2022-11-09T20:56:11.185Z,1.02
2022-11-09T20:58:05.345Z,1.02
2022-11-09T21:00:05.888Z,1.02
2022-11-09T21:02:16.537Z,1.02
2022-11-09T21:04:05.377Z,1.02
2022-11-09T21:06:12.891Z,1.02
2022-11-09T21:08:05.572Z,1.02
2022-11-09T21:10:05.941Z,1.02
2022-11-09T21:12:05.511Z,1.02
2022-11-09T21:14:05.408Z,1.02
2022-11-09T21:16:05.781Z,1.02
2022-11-09T21:18:05.475Z,1.02
2022-11-09T21:20:06.068Z,1.02
2022-11-09T21:22:10.463Z,1.02
2022-11-09T21:24:05.678Z,1.02
2022-11-09T21:26:05.265Z,1.02
2022-11-09T21:28:10.600Z,1.02
2022-11-09T21:30:05.610Z,1.02
2022-11-09T21:32:05.685Z,1.02
2022-11-09T21:34:05.167Z,1.02
2022-11-09T21:36:07.561Z,1.02
2022-11-09T21:38:05.979Z,1.02
2022-11-09T21:40:05.589Z,1.02
2022-11-09T21:42:05.119Z,1.02
2022-11-09T21:44:06.160Z,1.02
2022-11-09T21:46:05.470Z,1.02
2022-11-09T21:48:05.529Z,1.02
2022-11-09T21:50:11.274Z,1.02
2022-11-09T21:52:05.723Z,1.02
2022-11-09T21:54:06.475Z,1.02
2022-11-09T21:56:05.358Z,1.02
2022-11-09T21:58:05.542Z,1.02
2022-11-09T22:00:06.005Z,1.02
2022-11-09T22:02:08.763Z,1.02
2022-11-09T22:04:05.999Z,1.02
2022-11-09T22:06:08.255Z,1.02
2022-11-09T22:08:06.092Z,1.02
2022-11-09T22:10:36.408Z,1.02
2022-11-09T22:12:15.659Z,1.02
2022-11-09T22:14:05.662Z,1.02
2022-11-09T22:16:05.616Z,1.02
2022-11-09T22:18:05.200Z,1.02
2022-11-09T22:20:08.546Z,1.02
2022-11-09T22:22:05.860Z,1.02
2022-11-09T22:24:06.245Z,1.02
2022-11-09T22:26:10.626Z,1.02
2022-11-09T22:28:05.740Z,1.02
2022-11-09T22:30:05.441Z,1.02
2022-11-09T22:32:06.142Z,1.02
2022-11-09T22:34:12.260Z,1.02
2022-11-09T22:36:05.654Z,1.02
2022-11-09T22:38:05.183Z,1.02
2022-11-09T22:40:10.223Z,1.02
2022-11-09T22:42:05.185Z,1.02
2022-11-09T22:44:06.287Z,1.02
2022-11-09T22:46:05.208Z,1.02
2022-11-09T22:48:05.317Z,1.02
2022-11-09T22:50:06.104Z,1.02
2022-11-09T22:52:05.296Z,1.02
2022-11-09T22:54:11.325Z,1.02
2022-11-09T22:56:05.439Z,1.02
2022-11-09T22:58:05.238Z,1.02
2022-11-09T23:00:09.184Z,1.02
2022-11-09T23:02:05.651Z,1.02
2022-11-09T23:04:06.328Z,1.02
2022-11-09T23:06:05.789Z,1.02
2022-11-09T23:08:05.498Z,1.02
2022-11-09T23:10:08.239Z,1.02
2022-11-09T23:12:05.157Z,1.02
2022-11-09T23:14:05.932Z,1.02
2022-11-09T23:16:05.638Z,1.02
2022-11-09T23:18:05.448Z,1.02
2022-11-09T23:20:05.752Z,1.02
2022-11-09T23:22:06.180Z,1.02
2022-11-09T23:24:06.176Z,1.02
2022-11-09T23:26:04.931Z,1.02
2022-11-09T23:28:05.627Z,1.02
2022-11-09T23:30:05.912Z,1.02
2022-11-09T23:32:05.445Z,1.02
2022-11-09T23:34:09.995Z,1.02
2022-11-09T23:36:13.099Z,1.02
2022-11-09T23:38:05.686Z,1.02
2022-11-09T23:40:05.917Z,1.02
2022-11-09T23:42:07.002Z,1.02
2022-11-09T23:44:11.899Z,1.02
2022-11-09T23:46:05.548Z,1.02
2022-11-09T23:48:05.732Z,1.02
2022-11-09T23:50:05.731Z,1.02
2022-11-09T23:52:06.090Z,1.02
2022-11-09T23:54:06.052Z,1.02
2022-11-09T23:56:05.754Z,1.02
2022-11-09T23:58:05.294Z,1.02
